createdAt,value
2023-10-17T00:01:26.422Z,647.96
2023-10-17T00:06:45.551Z,651.66
2023-10-17T00:12:04.917Z,651.66
2023-10-17T00:17:23.731Z,651.66
2023-10-17T00:22:43.453Z,647.96
2023-10-17T00:28:03.520Z,647.96
2023-10-17T00:33:23.010Z,651.66
2023-10-17T00:38:42.484Z,647.96
2023-10-17T00:44:02.362Z,651.66
2023-10-17T00:49:22.385Z,0
2023-10-17T00:54:41.049Z,651.66
2023-10-17T01:05:20.746Z,651.66
2023-10-17T01:10:39.190Z,651.66
2023-10-17T01:15:58.238Z,651.66
2023-10-17T01:21:17.370Z,647.96
2023-10-17T01:26:36.380Z,0
2023-10-17T01:31:56.015Z,651.66
2023-10-17T01:37:16.444Z,651.66
2023-10-17T01:42:34.796Z,647.96
2023-10-17T01:47:53.637Z,651.66
2023-10-17T01:53:12.650Z,651.66
2023-10-17T01:58:32.261Z,651.66
2023-10-17T02:03:52.598Z,647.96
2023-10-17T02:09:10.672Z,0
2023-10-17T02:14:30.253Z,647.96
2023-10-17T02:19:48.625Z,647.96
2023-10-17T02:25:08.994Z,651.66
2023-10-17T02:30:27.010Z,647.96
2023-10-17T02:35:45.937Z,647.96
2023-10-17T02:42:19.873Z,647.96
2023-10-17T02:46:25.413Z,647.96
2023-10-17T02:51:44.913Z,643.51
2023-10-17T02:57:04.466Z,651.66
2023-10-17T03:02:24.090Z,514.76
2023-10-17T03:07:43.687Z,527.76
2023-10-17T03:13:03.244Z,559.01
2023-10-17T03:18:22.090Z,637.11
2023-10-17T03:23:39.607Z,0
2023-10-17T03:28:58.834Z,647.96
2023-10-17T03:34:18.772Z,647.96
2023-10-17T03:39:38.046Z,647.96
2023-10-17T03:44:58.463Z,516.72
2023-10-17T03:50:16.614Z,545.26
2023-10-17T03:55:36.282Z,0
2023-10-17T04:06:15.129Z,646.22
2023-10-17T04:11:34.305Z,0
2023-10-17T04:16:53.726Z,643.51
2023-10-17T04:22:21.174Z,651.66
2023-10-17T04:32:51.111Z,651.66
2023-10-17T04:38:09.996Z,0
2023-10-17T04:43:29.662Z,647.96
2023-10-17T04:48:48.811Z,645.47
2023-10-17T04:54:07.994Z,647.96
2023-10-17T04:59:27.380Z,0
2023-10-17T05:04:46.801Z,647.96
2023-10-17T05:15:25.370Z,647.96
2023-10-17T05:20:44.853Z,0
2023-10-17T05:31:22.974Z,461.96
2023-10-17T05:36:41.888Z,415.61
2023-10-17T05:47:19.935Z,444.46
2023-10-17T05:52:39.235Z,470.36
2023-10-17T05:57:58.489Z,411.16
2023-10-17T06:08:36.966Z,377.86
2023-10-17T06:13:56.626Z,533.26
2023-10-17T06:24:35.573Z,603.56
2023-10-17T06:35:14.355Z,573.96
2023-10-17T06:40:33.446Z,610.96
2023-10-17T06:45:53.249Z,596.16
2023-10-17T06:51:12.295Z,636.86
2023-10-17T06:56:31.965Z,651.66
2023-10-17T07:01:51.066Z,651.66
2023-10-17T07:07:10.188Z,0
2023-10-17T07:12:29.088Z,451.86
2023-10-17T07:17:48.415Z,485.16
2023-10-17T07:23:07.241Z,0
2023-10-17T07:28:26.262Z,433.36
2023-10-17T07:33:45.849Z,444.46
2023-10-17T07:39:05.627Z,400.06
2023-10-17T07:44:24.948Z,418.56
2023-10-17T07:49:44.397Z,481.46
2023-10-17T07:55:03.296Z,496.26
2023-10-17T08:00:22.995Z,514.76
2023-10-17T08:05:42.468Z,455.56
2023-10-17T08:11:01.702Z,448.16
2023-10-17T08:16:20.807Z,403.76
2023-10-17T08:21:39.856Z,388.96
2023-10-17T08:26:58.795Z,0
2023-10-17T08:32:17.625Z,570.26
2023-10-17T08:37:37.161Z,444.46
2023-10-17T08:42:56.757Z,414.86
2023-10-17T08:48:16.643Z,507.36
2023-10-17T08:53:37.066Z,0
2023-10-17T08:58:55.462Z,0
2023-10-17T09:04:15.110Z,0
2023-10-17T09:09:34.175Z,311.26
2023-10-17T09:14:53.427Z,540.66
2023-10-17T09:20:12.517Z,370.46
2023-10-17T09:25:31.828Z,0
2023-10-17T09:30:51.657Z,470.36
2023-10-17T09:36:10.334Z,377.86
2023-10-17T09:41:29.509Z,329.76
2023-10-17T09:46:48.802Z,651.66
2023-10-17T09:52:08.017Z,451.4
2023-10-17T09:57:27.337Z,449.54
2023-10-17T10:02:47.786Z,430.94
2023-10-17T10:13:25.611Z,392.34
2023-10-17T10:24:03.860Z,400.25
2023-10-17T10:29:22.842Z,387.15
2023-10-17T10:34:42.071Z,406.9
2023-10-17T10:40:00.867Z,393.5
2023-10-17T10:45:20.515Z,387.4
2023-10-17T10:50:39.634Z,371.19
2023-10-17T10:55:59.333Z,367.19
2023-10-17T11:01:18.846Z,347.54
2023-10-17T11:11:57.449Z,345.5
2023-10-17T11:17:16.630Z,340.44
2023-10-17T11:22:36.569Z,328.09
2023-10-17T11:27:54.956Z,336.04
2023-10-17T11:38:43.237Z,325.65
2023-10-17T11:43:53.488Z,307.94
2023-10-17T11:49:11.929Z,308.19
2023-10-17T11:54:34.193Z,310.84
2023-10-17T12:05:33.509Z,327.25
2023-10-17T12:10:52.589Z,335.79
2023-10-17T12:16:11.971Z,357.15
2023-10-17T12:21:31.007Z,373.44
2023-10-17T12:26:50.561Z,372.25
2023-10-17T12:32:09.875Z,375.29
2023-10-17T12:37:29.508Z,368.84
2023-10-17T12:42:48.889Z,382.9
2023-10-17T12:48:07.596Z,387.4
2023-10-17T12:53:27.302Z,365.75
2023-10-17T13:04:05.729Z,310.79
2023-10-17T13:09:24.998Z,299.25
2023-10-17T13:14:44.409Z,271.54
2023-10-17T13:20:04.169Z,209.29
2023-10-17T13:25:23.125Z,365.25
2023-10-17T13:30:41.950Z,634.84
2023-10-17T13:36:01.350Z,546.75
2023-10-17T13:46:40.721Z,515.75
2023-10-17T13:57:19.123Z,403.15
2023-10-17T14:02:38.649Z,322.9
2023-10-17T14:07:57.417Z,309.9
2023-10-17T14:13:16.321Z,284.09
2023-10-17T14:18:35.593Z,262.45
2023-10-17T14:23:54.522Z,258.25
2023-10-17T14:29:13.714Z,240.7
2023-10-17T14:34:35.501Z,205.29
2023-10-17T14:39:52.621Z,195.64
2023-10-17T14:45:11.537Z,175.2
2023-10-17T14:50:30.469Z,156.5
2023-10-17T14:55:49.719Z,140.84
2023-10-17T15:01:08.951Z,134
2023-10-17T15:11:47.425Z,107.89
2023-10-17T15:17:06.492Z,102.25
2023-10-17T15:22:25.602Z,98.94
2023-10-17T15:27:44.950Z,93.79
2023-10-17T15:38:23.778Z,75.3
2023-10-17T15:43:42.740Z,67.8
2023-10-17T15:49:02.231Z,61.75
2023-10-17T15:54:21.817Z,54.44
2023-10-17T15:59:41.380Z,53.5
2023-10-17T16:05:00.797Z,492.56
2023-10-17T16:10:20.478Z,425.96
2023-10-17T16:15:39.434Z,633.16
2023-10-17T16:20:59.128Z,0
2023-10-17T16:26:18.014Z,385.26
2023-10-17T16:31:37.502Z,0
2023-10-17T16:36:57.086Z,0
2023-10-17T16:42:16.242Z,0
2023-10-17T16:52:55.076Z,0
2023-10-17T17:03:33.628Z,0
2023-10-17T17:08:52.505Z,0
2023-10-17T17:19:30.749Z,0
2023-10-17T17:24:49.616Z,0
2023-10-17T17:30:09.259Z,0
2023-10-17T17:35:28.019Z,0
2023-10-17T17:40:47.639Z,0
2023-10-17T17:46:07.299Z,0
2023-10-17T17:51:26.296Z,0
2023-10-17T17:56:46.061Z,0
2023-10-17T18:02:05.596Z,0
2023-10-17T18:07:24.646Z,0
2023-10-17T18:12:43.511Z,0
2023-10-17T18:18:02.562Z,0
2023-10-17T18:23:21.445Z,0
2023-10-17T18:28:40.519Z,0
2023-10-17T18:33:59.859Z,0
2023-10-17T18:39:18.752Z,0
2023-10-17T18:44:37.931Z,0
2023-10-17T18:49:57.400Z,0
2023-10-17T18:55:16.741Z,0
2023-10-17T19:00:35.938Z,0
2023-10-17T19:05:55.504Z,0
2023-10-17T19:11:15.081Z,0
2023-10-17T19:16:33.926Z,0
2023-10-17T19:21:53.357Z,0
2023-10-17T19:27:12.225Z,0
2023-10-17T19:37:50.959Z,0
2023-10-17T19:43:10.365Z,0
2023-10-17T19:48:29.954Z,0
2023-10-17T19:53:49.467Z,0
2023-10-17T19:59:08.585Z,0
2023-10-17T20:04:28.387Z,0
2023-10-17T20:09:47.669Z,0
2023-10-17T20:15:07.330Z,0
2023-10-17T20:20:27.073Z,0
2023-10-17T20:25:46.181Z,0
2023-10-17T20:36:25.417Z,0
2023-10-17T20:41:45.159Z,0
2023-10-17T20:52:24.263Z,0
2023-10-17T21:03:02.514Z,0
2023-10-17T21:08:21.769Z,0
2023-10-17T21:13:41.204Z,0
2023-10-17T21:19:00.112Z,0
2023-10-17T21:24:18.953Z,0
2023-10-17T21:29:37.941Z,0
2023-10-17T21:34:57.017Z,0
2023-10-17T21:40:16.630Z,0
2023-10-17T21:45:35.892Z,0
2023-10-17T21:51:07.384Z,0
2023-10-17T22:01:34.687Z,0
2023-10-17T22:06:54.440Z,0
2023-10-17T22:12:14.074Z,0
2023-10-17T22:17:32.984Z,0
2023-10-17T22:22:52.694Z,0
2023-10-17T22:28:12.036Z,0
2023-10-17T22:33:31.192Z,0
2023-10-17T22:38:50.715Z,0
2023-10-17T22:44:09.732Z,0
2023-10-17T22:49:29.551Z,0
2023-10-17T22:54:48.290Z,0
2023-10-17T23:00:07.910Z,0
2023-10-17T23:05:26.777Z,0
2023-10-17T23:10:45.832Z,0
2023-10-17T23:16:05.080Z,0
2023-10-17T23:21:24.301Z,0
2023-10-17T23:26:43.406Z,0
2023-10-17T23:32:02.362Z,0
2023-10-17T23:37:21.778Z,0
2023-10-17T23:42:41.383Z,0
2023-10-17T23:48:00.601Z,0
2023-10-17T23:53:19.677Z,0
2023-10-17T23:58:39.052Z,0
